Time;durP1;ratioP1;P1;durP2;ratioP2;P2;SDS_P1;SDS_P2;PMS_P1;PMS_P2;Temp;Humidity;BMP_temperature;BMP_pressure;BME280_temperature;BME280_humidity;BME280_pressure;Samples;Min_cycle;Max_cycle;Signal;HPM_P1;HPM_P2
2023/06/14 00:00:31;;;;;;;74.13;6.20;;;;;;;25.24;49.66;99401.13;7309904;19;130052;-39
2023/06/14 00:02:56;;;;;;;42.03;3.13;;;;;;;25.23;49.79;99399.50;7308243;19;129315;-40
2023/06/14 00:05:23;;;;;;;29.67;2.40;;;;;;;25.25;49.67;99405.44;7309147;19;129432;-36
2023/06/14 00:07:49;;;;;;;35.28;3.20;;;;;;;25.24;49.81;99401.97;7310257;19;130349;-32
2023/06/14 00:10:14;;;;;;;59.40;4.27;;;;;;;25.17;49.96;99392.28;7306590;19;129158;-44
2023/06/14 00:12:41;;;;;;;46.43;3.27;;;;;;;25.14;49.83;99390.00;7310113;19;129759;-37
2023/06/14 00:15:09;;;;;;;46.25;3.53;;;;;;;25.25;50.20;99402.78;7309855;19;129344;-33
2023/06/14 00:17:36;;;;;;;31.05;2.63;;;;;;;25.16;50.21;99388.81;7309372;19;129473;-35
2023/06/14 00:20:05;;;;;;;33.17;2.90;;;;;;;25.18;49.54;99383.38;7309982;19;129606;-38
2023/06/14 00:22:30;;;;;;;61.05;4.18;;;;;;;25.27;49.66;99396.34;7309349;19;129697;-36
2023/06/14 00:24:56;;;;;;;36.30;2.93;;;;;;;25.27;50.00;99392.94;7309977;19;131106;-40
2023/06/14 00:27:21;;;;;;;28.13;2.30;;;;;;;25.15;49.42;99378.47;7310494;19;129708;-40
2023/06/14 00:29:46;;;;;;;56.60;3.83;;;;;;;25.29;50.17;99396.19;7308306;19;129587;-35
2023/06/14 00:32:12;;;;;;;42.50;3.43;;;;;;;25.25;50.53;99393.09;7309424;19;129007;-42
2023/06/14 00:34:37;;;;;;;54.00;4.07;;;;;;;25.07;49.77;99373.22;7308915;19;130275;-36
2023/06/14 00:37:03;;;;;;;41.57;3.70;;;;;;;25.12;50.22;99392.75;7307101;19;130962;-39
2023/06/14 00:39:28;;;;;;;43.60;3.05;;;;;;;25.17;49.73;99400.19;7310359;19;129712;-40
2023/06/14 00:41:53;;;;;;;41.00;3.10;;;;;;;25.23;50.05;99396.88;7306826;19;129257;-39
2023/06/14 00:44:19;;;;;;;43.58;3.53;;;;;;;25.16;49.79;99377.47;7309263;19;129449;-36
2023/06/14 00:46:45;;;;;;;25.87;2.37;;;;;;;25.15;50.26;99378.47;7306418;19;129257;-40
2023/06/14 00:49:15;;;;;;;44.03;3.60;;;;;;;25.26;50.42;99399.16;7306448;19;129396;-36
2023/06/14 00:51:41;;;;;;;45.65;3.67;;;;;;;25.25;49.54;99397.53;7308265;19;129180;-39
2023/06/14 00:54:06;;;;;;;28.77;2.47;;;;;;;25.23;49.30;99397.69;7310032;19;129607;-40
2023/06/14 00:56:32;;;;;;;32.47;2.60;;;;;;;25.24;49.68;99401.97;7306178;19;129981;-36
2023/06/14 00:58:58;;;;;;;42.10;3.30;;;;;;;25.16;49.89;99377.47;7307826;19;129694;-39
2023/06/14 01:01:24;;;;;;;38.00;2.93;;;;;;;25.20;49.56;99377.00;7308365;19;129102;-38
2023/06/14 01:03:50;;;;;;;32.80;2.60;;;;;;;25.19;50.21;99399.00;7313132;19;130265;-40
2023/06/14 01:06:16;;;;;;;;;;;;;;;25.26;50.35;99383.38;7314551;19;130436;-33
2023/06/14 01:08:51;;;;;;;24.93;2.13;;;;;;;25.15;50.66;99367.94;7313986;19;129805;-43
2023/06/14 01:11:28;;;;;;;44.35;3.10;;;;;;;25.27;50.36;99379.78;7311085;19;128809;-37
2023/06/14 01:13:56;;;;;;;19.27;2.05;;;;;;;25.16;50.07;99377.47;7313924;19;129238;-39
2023/06/14 01:16:21;;;;;;;14.85;1.52;;;;;;;25.14;49.97;99377.63;7313751;19;129369;-42
2023/06/14 01:18:49;;;;;;;25.23;2.00;;;;;;;25.12;49.99;99381.44;7315676;19;129377;-38
2023/06/14 01:21:22;;;;;;;46.28;3.40;;;;;;;25.20;50.63;99384.06;7313057;19;129098;-48
2023/06/14 01:23:52;;;;;;;41.53;3.10;;;;;;;25.19;50.27;99380.59;7314323;19;129316;-41
2023/06/14 01:26:18;;;;;;;44.03;3.03;;;;;;;25.19;49.83;99371.88;7314234;19;129263;-43
2023/06/14 01:28:48;;;;;;;15.10;1.70;;;;;;;25.22;49.97;99379.44;7314566;19;129419;-39
2023/06/14 01:31:17;;;;;;;36.70;2.97;;;;;;;25.16;50.65;99364.31;7313890;19;129028;-39
2023/06/14 01:33:44;;;;;;;36.05;2.85;;;;;;;25.20;50.10;99368.25;7314860;19;129094;-34
2023/06/14 01:36:09;;;;;;;29.58;2.28;;;;;;;25.21;49.36;99376.00;7313834;19;129192;-39
2023/06/14 01:38:37;;;;;;;21.33;2.07;;;;;;;25.24;50.39;99380.06;7313537;19;129139;-35
2023/06/14 01:41:03;;;;;;;36.30;3.03;;;;;;;25.22;50.28;99380.25;7314068;19;129579;-36
2023/06/14 01:43:30;;;;;;;54.90;3.88;;;;;;;25.21;49.99;99378.63;7312239;19;129323;-43
2023/06/14 01:45:57;;;;;;;26.10;2.28;;;;;;;25.20;50.30;99376.16;7313414;19;129534;-34
2023/06/14 01:48:23;;;;;;;44.95;3.28;;;;;;;25.22;49.86;99380.25;7313370;19;128942;-36
2023/06/14 01:50:49;;;;;;;47.83;3.13;;;;;;;25.23;49.33;99378.44;7314141;19;129264;-38
2023/06/14 01:53:15;;;;;;;55.40;3.70;;;;;;;25.24;50.25;99377.44;7313317;19;129020;-40
2023/06/14 01:55:43;;;;;;;13.00;1.50;;;;;;;25.23;49.60;99383.72;7313723;19;129562;-32
2023/06/14 01:58:08;;;;;;;47.65;3.60;;;;;;;25.15;50.74;99370.56;7312948;19;129256;-38
2023/06/14 02:00:34;;;;;;;81.00;5.90;;;;;;;25.20;49.41;99378.78;7314254;19;129610;-35
2023/06/14 02:03:00;;;;;;;108.93;7.37;;;;;;;25.21;50.31;99380.41;7312253;19;129650;-35
2023/06/14 02:05:26;;;;;;;35.80;2.77;;;;;;;25.18;50.12;99386.84;7311905;19;130248;-39
2023/06/14 02:07:51;;;;;;;22.00;1.90;;;;;;;25.16;50.39;99394.09;7314381;19;128979;-48
2023/06/14 02:10:17;;;;;;;44.40;3.53;;;;;;;25.18;50.28;99396.53;7309575;19;129437;-40
2023/06/14 02:12:43;;;;;;;43.47;2.87;;;;;;;25.18;50.88;99399.19;7313544;19;130304;-32
2023/06/14 02:15:09;;;;;;;34.42;2.53;;;;;;;25.16;49.70;99395.88;7309963;19;130410;-40
2023/06/14 02:17:35;;;;;;;;;;;;;;;25.18;50.83;99386.03;7314537;19;129227;-39
2023/06/14 02:20:00;;;;;;;47.77;3.43;;;;;;;25.20;50.43;99399.84;7312364;19;128986;-39
2023/06/14 02:22:26;;;;;;;48.63;3.57;;;;;;;25.18;49.77;99401.81;7313097;19;129082;-39
2023/06/14 02:24:51;;;;;;;26.83;2.20;;;;;;;25.19;51.19;99399.00;7311810;19;130895;-39
2023/06/14 02:27:17;;;;;;;30.43;2.43;;;;;;;25.19;50.43;99398.19;7313516;19;129654;-40
2023/06/14 02:29:42;;;;;;;43.10;3.03;;;;;;;25.18;50.67;99402.66;7309717;19;128964;-40
2023/06/14 02:32:08;;;;;;;29.27;2.57;;;;;;;25.19;50.33;99409.53;7312700;19;129330;-35
2023/06/14 02:34:34;;;;;;;40.03;3.27;;;;;;;25.20;50.34;99408.56;7310616;19;129469;-33
2023/06/14 02:37:02;;;;;;;32.63;2.63;;;;;;;25.20;50.74;99405.09;7310595;19;128915;-33
2023/06/14 02:39:28;;;;;;;115.18;7.47;;;;;;;25.20;49.86;99405.09;7310888;19;128924;-43
2023/06/14 02:41:53;;;;;;;39.93;3.00;;;;;;;25.19;50.83;99408.69;7312014;19;129515;-34
2023/06/14 02:44:19;;;;;;;55.83;3.83;;;;;;;25.17;50.89;99405.44;7312431;19;129148;-43
2023/06/14 02:46:45;;;;;;;14.97;1.47;;;;;;;25.18;49.84;99407.91;7308524;19;129362;-31
2023/06/14 02:49:11;;;;;;;45.92;3.40;;;;;;;25.19;51.51;99404.28;7312752;19;129212;-39
2023/06/14 02:51:36;;;;;;;47.58;3.20;;;;;;;25.19;50.81;99408.69;7310789;19;129104;-39
2023/06/14 02:54:02;;;;;;;27.67;2.17;;;;;;;25.17;50.40;99405.44;7313361;19;130909;-34
2023/06/14 02:56:29;;;;;;;34.60;2.73;;;;;;;25.15;50.68;99407.41;7310374;19;129089;-37
2023/06/14 02:58:54;;;;;;;81.85;5.53;;;;;;;25.18;50.58;99414.97;7312344;19;129006;-36
2023/06/14 03:01:21;;;;;;;37.00;2.80;;;;;;;25.16;50.63;99403.78;7310058;19;130506;-42
2023/06/14 03:03:47;;;;;;;42.40;2.97;;;;;;;25.17;51.30;99410.72;7310391;19;130797;-36
2023/06/14 03:06:13;;;;;;;36.83;2.53;;;;;;;25.14;50.70;99405.78;7310232;19;129402;-38
2023/06/14 03:08:39;;;;;;;60.60;4.13;;;;;;;25.18;49.89;99412.34;7311010;19;129537;-35
2023/06/14 03:11:05;;;;;;;46.83;3.30;;;;;;;25.19;50.50;99411.34;7309081;19;129215;-36
2023/06/14 03:13:32;;;;;;;37.63;2.60;;;;;;;25.19;50.63;99411.34;7311713;19;129305;-32
2023/06/14 03:15:57;;;;;;;15.32;1.52;;;;;;;25.20;50.63;99410.38;7308846;19;128944;-35
2023/06/14 03:18:23;;;;;;;48.37;3.47;;;;;;;25.20;50.36;99423.53;7312432;19;129039;-38
2023/06/14 03:20:48;;;;;;;35.27;2.63;;;;;;;25.22;50.08;99419.72;7309935;19;129217;-43
2023/06/14 03:23:14;;;;;;;25.27;2.13;;;;;;;25.13;50.69;99412.00;7312294;19;129944;-40
2023/06/14 03:25:41;;;;;;;26.05;2.33;;;;;;;25.21;50.65;99414.63;7307308;19;128980;-39
2023/06/14 03:28:07;;;;;;;49.70;3.47;;;;;;;25.19;50.81;99411.34;7311770;19;129288;-37
2023/06/14 03:30:32;;;;;;;79.30;6.03;;;;;;;25.11;50.72;99408.72;7306659;19;129416;-39
2023/06/14 03:33:00;;;;;;;28.93;2.33;;;;;;;25.19;51.00;99422.69;7310738;19;129313;-35
2023/06/14 03:35:26;;;;;;;34.00;2.65;;;;;;;25.18;50.45;99428.13;7309656;19;129572;-35
2023/06/14 03:37:52;;;;;;;38.67;2.53;;;;;;;25.19;50.44;99424.50;7310253;19;129492;-37
2023/06/14 03:40:19;;;;;;;59.17;4.23;;;;;;;25.17;50.42;99434.38;7309800;19;129295;-38
2023/06/14 03:42:45;;;;;;;26.60;2.17;;;;;;;25.16;51.18;99435.34;7309730;19;129381;-38
2023/06/14 03:45:10;;;;;;;42.50;3.10;;;;;;;25.20;50.73;99436.69;7307820;19;128997;-37
2023/06/14 03:47:36;;;;;;;52.60;3.53;;;;;;;25.19;50.67;99445.53;7310653;19;129730;-37
2023/06/14 03:50:05;;;;;;;94.40;6.40;;;;;;;25.18;51.00;99450.00;7307877;19;129199;-41
2023/06/14 03:52:32;;;;;;;32.58;2.42;;;;;;;25.17;51.07;99447.53;7308391;19;129394;-36
2023/06/14 03:55:00;;;;;;;48.47;3.55;;;;;;;25.16;51.17;99451.13;7309215;19;129395;-39
2023/06/14 03:57:25;;;;;;;88.35;5.47;;;;;;;25.16;50.72;99456.41;7307468;19;129316;-32
2023/06/14 03:59:50;;;;;;;35.17;2.80;;;;;;;25.17;50.89;99452.81;7311800;19;129001;-35
2023/06/14 04:02:17;;;;;;;26.87;2.13;;;;;;;25.18;51.14;99464.97;7306750;19;131278;-39
2023/06/14 04:04:46;;;;;;;27.92;2.05;;;;;;;25.17;50.91;99463.31;7308810;19;129042;-34
2023/06/14 04:07:12;;;;;;;27.60;2.05;;;;;;;25.17;50.65;99471.22;7307026;19;129892;-41
2023/06/14 04:09:38;;;;;;;32.85;2.55;;;;;;;25.19;50.88;99474.47;7308935;19;129610;-36
2023/06/14 04:12:05;;;;;;;26.33;2.20;;;;;;;25.17;51.25;99456.22;7306374;19;129629;-43
2023/06/14 04:14:33;;;;;;;37.72;2.70;;;;;;;25.18;50.69;99464.97;7305695;19;129443;-39
2023/06/14 04:16:58;;;;;;;58.30;3.80;;;;;;;25.17;51.58;99468.59;7304740;19;128887;-42
2023/06/14 04:19:24;;;;;;;37.93;3.03;;;;;;;25.18;51.08;99468.41;7308836;19;129787;-43
2023/06/14 04:21:50;;;;;;;30.90;2.40;;;;;;;25.16;50.98;99466.94;7304132;19;129447;-41
2023/06/14 04:24:16;;;;;;;44.20;3.43;;;;;;;25.16;51.05;99472.19;7307997;19;129241;-41
2023/06/14 04:26:44;;;;;;;39.45;2.75;;;;;;;25.16;50.21;99466.94;7306370;19;130715;-44
2023/06/14 04:29:19;;;;;;;46.22;3.50;;;;;;;25.13;51.09;99457.56;7307249;19;130928;-41
2023/06/14 04:31:45;;;;;;;20.73;1.63;;;;;;;25.17;50.92;99468.59;7308284;19;130419;-43
2023/06/14 04:34:16;;;;;;;49.47;3.65;;;;;;;25.06;50.15;99445.22;7307857;19;130169;-42
2023/06/14 04:36:48;;;;;;;44.65;3.22;;;;;;;25.16;50.86;99467.75;7307768;19;129642;-45
2023/06/14 04:39:17;;;;;;;80.13;4.93;;;;;;;25.16;51.44;99472.19;7315255;19;130352;-45
2023/06/14 04:41:42;;;;;;;36.92;2.85;;;;;;;25.16;50.89;99485.34;7314035;19;129691;-41
2023/06/14 04:44:09;;;;;;;39.60;3.20;;;;;;;25.17;51.29;99484.38;7316189;19;128899;-39
2023/06/14 04:46:44;;;;;;;38.53;2.83;;;;;;;25.16;50.46;99485.34;7309655;19;129266;-39
2023/06/14 04:49:10;;;;;;;48.47;3.50;;;;;;;25.16;51.48;99493.22;7314243;19;129302;-42
2023/06/14 04:51:36;;;;;;;29.00;2.30;;;;;;;25.15;51.25;99487.19;7309472;19;129796;-40
2023/06/14 04:54:03;;;;;;;;;;;;;;;25.23;51.19;99484.53;7315784;19;129702;-42
2023/06/14 04:56:29;;;;;;;48.90;3.78;;;;;;;25.18;50.56;99486.00;7307148;19;128934;-41
2023/06/14 04:58:56;;;;;;;61.92;3.88;;;;;;;25.16;51.77;99485.34;7312274;19;129821;-40
2023/06/14 05:01:23;;;;;;;167.40;11.13;;;;;;;25.18;51.13;99480.75;7309887;19;129585;-42
2023/06/14 05:03:49;;;;;;;17.13;1.63;;;;;;;25.16;50.30;99494.06;7315125;19;129451;-39
2023/06/14 05:06:15;;;;;;;30.27;2.20;;;;;;;25.09;50.78;99481.75;7312201;19;129203;-39
2023/06/14 05:08:41;;;;;;;71.47;4.50;;;;;;;25.17;50.58;99500.16;7309212;19;130845;-41
2023/06/14 05:11:06;;;;;;;53.33;3.77;;;;;;;25.16;51.00;99498.50;7311571;19;129296;-39
2023/06/14 05:13:32;;;;;;;41.45;2.92;;;;;;;25.16;51.00;99504.59;7315191;19;129526;-40
2023/06/14 05:15:58;;;;;;;11.20;1.47;;;;;;;25.13;50.78;99498.84;7310462;19;128930;-34
2023/06/14 05:18:25;;;;;;;77.40;5.07;;;;;;;25.15;50.57;99507.38;7315018;19;130391;-38
2023/06/14 05:20:50;;;;;;;121.40;8.18;;;;;;;25.08;51.38;99493.25;7308500;19;130207;-42
2023/06/14 05:23:16;;;;;;;20.67;1.67;;;;;;;25.13;50.39;99509.34;7311563;19;129560;-40
2023/06/14 05:25:45;;;;;;;30.60;2.50;;;;;;;25.13;51.64;99504.09;7312917;19;129253;-40
2023/06/14 05:28:11;;;;;;;42.47;2.80;;;;;;;25.13;51.54;99496.19;7311126;19;129326;-41
2023/06/14 05:30:38;;;;;;;68.67;5.13;;;;;;;25.14;50.72;99508.38;7312099;19;129730;-43
2023/06/14 05:33:03;;;;;;;39.30;3.10;;;;;;;25.09;50.98;99505.44;7310649;19;130025;-38
2023/06/14 05:35:29;;;;;;;129.87;8.47;;;;;;;25.09;50.83;99508.84;7308679;19;129074;-39
2023/06/14 05:37:54;;;;;;;56.73;3.87;;;;;;;25.05;50.89;99498.84;7313281;19;129199;-41
2023/06/14 05:40:20;;;;;;;40.40;3.07;;;;;;;25.12;51.64;99515.63;7315622;19;130209;-39
2023/06/14 05:42:45;;;;;;;36.33;2.70;;;;;;;25.15;51.28;99510.03;7314456;19;129196;-39
2023/06/14 05:45:11;;;;;;;32.30;2.60;;;;;;;25.17;51.35;99505.41;7312999;19;129122;-41
2023/06/14 05:47:36;;;;;;;41.73;3.07;;;;;;;25.14;51.49;99509.19;7316464;19;129386;-38
2023/06/14 05:50:02;;;;;;;39.20;3.03;;;;;;;25.16;50.99;99509.03;7310854;19;129248;-41
2023/06/14 05:52:27;;;;;;;39.93;2.83;;;;;;;25.16;51.13;99509.03;7315107;19;130569;-39
2023/06/14 05:54:53;;;;;;;32.27;2.30;;;;;;;25.14;51.33;99508.38;7313166;19;129311;-38
2023/06/14 05:57:19;;;;;;;57.70;4.00;;;;;;;25.15;51.00;99507.38;7309744;19;129570;-40
2023/06/14 05:59:44;;;;;;;49.87;3.57;;;;;;;25.14;51.43;99511.03;7308829;19;130253;-37
2023/06/14 06:02:10;;;;;;;55.60;3.80;;;;;;;25.15;51.12;99508.22;7307968;19;129337;-39
2023/06/14 06:04:35;;;;;;;73.60;5.00;;;;;;;25.11;51.38;99516.59;7305355;19;130349;-39
2023/06/14 06:07:01;;;;;;;74.05;5.35;;;;;;;24.86;52.16;99502.59;7303453;19;129858;-41
2023/06/14 06:09:26;;;;;;;64.75;4.47;;;;;;;24.89;51.57;99512.78;7305060;19;129771;-42
2023/06/14 06:11:52;;;;;;;49.43;3.70;;;;;;;24.97;51.69;99522.50;7301676;19;129597;-39
2023/06/14 06:14:17;;;;;;;91.23;5.67;;;;;;;24.97;51.76;99523.34;7307107;19;129055;-43
2023/06/14 06:16:42;;;;;;;59.77;4.40;;;;;;;24.96;51.72;99518.22;7305280;19;130224;-38
2023/06/14 06:19:07;;;;;;;66.37;4.63;;;;;;;24.94;51.89;99518.38;7306175;19;129580;-41
2023/06/14 06:21:33;;;;;;;76.43;5.50;;;;;;;24.95;51.44;99521.84;7305382;19;128975;-38
2023/06/14 06:23:58;;;;;;;86.10;5.83;;;;;;;24.98;51.39;99521.50;7306470;19;129168;-42
2023/06/14 06:26:23;;;;;;;46.25;3.60;;;;;;;25.07;50.97;99534.50;7305712;19;129018;-38
2023/06/14 06:28:49;;;;;;;66.53;5.20;;;;;;;25.08;51.30;99535.34;7306453;19;130699;-42
2023/06/14 06:31:15;;;;;;;76.20;5.53;;;;;;;25.08;51.08;99537.97;7304587;19;130198;-38
2023/06/14 06:33:40;;;;;;;61.73;4.40;;;;;;;25.08;51.63;99537.97;7307269;19;129051;-40
2023/06/14 06:36:06;;;;;;;64.00;4.50;;;;;;;24.97;51.37;99522.50;7303590;19;129402;-40
2023/06/14 06:38:31;;;;;;;61.80;4.37;;;;;;;25.10;51.49;99541.25;7304962;19;129913;-40
2023/06/14 06:40:57;;;;;;;36.00;3.20;;;;;;;25.09;51.20;99540.44;7313078;19;129221;-39
2023/06/14 06:43:22;;;;;;;26.53;2.63;;;;;;;25.03;51.59;99537.63;7315388;19;129207;-40
2023/06/14 06:45:48;;;;;;;35.17;3.17;;;;;;;25.04;51.61;99529.56;7311411;19;130970;-37
2023/06/14 06:48:13;;;;;;;29.97;2.60;;;;;;;25.07;51.09;99536.34;7314632;19;129606;-42
2023/06/14 06:50:39;;;;;;;70.60;5.40;;;;;;;25.08;51.50;99540.59;7309495;19;129434;-39
2023/06/14 06:53:05;;;;;;;27.13;2.63;;;;;;;24.98;51.58;99519.72;7315681;19;129169;-40
2023/06/14 06:55:30;;;;;;;37.50;3.07;;;;;;;25.01;51.26;99531.69;7313048;19;129872;-38
2023/06/14 06:57:56;;;;;;;32.03;2.50;;;;;;;25.08;51.52;99549.31;7313443;19;129613;-38
2023/06/14 07:00:21;;;;;;;82.73;5.80;;;;;;;25.07;51.23;99544.22;7311227;19;129526;-38
2023/06/14 07:02:47;;;;;;;38.43;3.10;;;;;;;25.07;50.65;99549.50;7311973;19;129371;-43
2023/06/14 07:05:13;;;;;;;23.63;2.17;;;;;;;25.08;51.72;99543.22;7313267;19;130178;-43
2023/06/14 07:07:38;;;;;;;29.67;2.60;;;;;;;24.97;52.07;99525.13;7312259;19;129548;-40
2023/06/14 07:10:04;;;;;;;62.67;4.57;;;;;;;25.06;51.86;99534.66;7312698;19;129458;-40
2023/06/14 07:12:33;;;;;;;28.45;2.88;;;;;;;25.08;51.52;99535.34;7312993;19;128876;-42
2023/06/14 07:14:59;;;;;;;45.35;3.55;;;;;;;25.05;51.31;99544.41;7312350;19;129297;-44
2023/06/14 07:17:25;;;;;;;45.40;3.70;;;;;;;25.06;51.96;99539.94;7309822;19;130267;-39
2023/06/14 07:19:50;;;;;;;49.00;3.57;;;;;;;25.06;52.11;99546.03;7310793;19;129073;-40
2023/06/14 07:22:16;;;;;;;42.20;3.22;;;;;;;25.07;52.23;99541.59;7313077;19;128921;-39
2023/06/14 07:24:42;;;;;;;21.00;2.03;;;;;;;24.96;51.38;99528.75;7313505;19;129012;-37
2023/06/14 07:27:07;;;;;;;30.53;2.57;;;;;;;25.06;51.36;99550.44;7310578;19;131319;-37
2023/06/14 07:29:33;;;;;;;46.00;3.50;;;;;;;25.05;51.68;99544.41;7311506;19;128693;-41
2023/06/14 07:31:58;;;;;;;30.92;2.63;;;;;;;25.06;51.22;99553.09;7313999;19;128945;-41
2023/06/14 07:34:23;;;;;;;21.17;1.95;;;;;;;25.04;51.79;99553.25;7312623;19;130214;-37
2023/06/14 07:36:49;;;;;;;30.67;2.47;;;;;;;25.05;52.16;99554.91;7311185;19;131094;-40
2023/06/14 07:39:14;;;;;;;21.20;1.93;;;;;;;25.07;51.72;99552.13;7313331;19;128982;-35
2023/06/14 07:41:40;;;;;;;23.73;2.13;;;;;;;25.06;52.08;99555.72;7313155;19;129519;-36
2023/06/14 07:44:05;;;;;;;24.77;2.20;;;;;;;25.04;51.98;99552.44;7311827;19;129375;-38
2023/06/14 07:46:31;;;;;;;44.50;3.53;;;;;;;25.05;52.09;99559.34;7311412;19;130640;-37
2023/06/14 07:48:56;;;;;;;34.47;2.53;;;;;;;25.03;51.19;99567.41;7313163;19;129178;-38
2023/06/14 07:51:23;;;;;;;16.07;1.87;;;;;;;25.05;51.93;99565.44;7310196;19;129358;-37
2023/06/14 07:53:49;;;;;;;38.90;3.20;;;;;;;25.07;52.10;99562.63;7312538;19;130123;-39
2023/06/14 07:56:14;;;;;;;43.80;3.50;;;;;;;25.04;51.90;99569.03;7311413;19;129441;-38
2023/06/14 07:58:39;;;;;;;43.07;3.27;;;;;;;25.04;52.02;99573.50;7313539;19;129188;-47
2023/06/14 08:01:07;;;;;;;16.47;1.73;;;;;;;25.04;52.24;99574.28;7313070;19;129023;-34
2023/06/14 08:03:33;;;;;;;29.85;2.53;;;;;;;25.04;51.95;99578.75;7312270;19;129094;-33
2023/06/14 08:05:58;;;;;;;28.17;2.40;;;;;;;25.05;52.30;99575.13;7308909;19;129735;-32
2023/06/14 08:08:24;;;;;;;29.90;2.50;;;;;;;25.05;52.09;99569.88;7313368;19;129157;-34
2023/06/14 08:10:49;;;;;;;27.37;2.33;;;;;;;25.06;51.76;99571.50;7308996;19;129458;-35
2023/06/14 08:13:15;;;;;;;31.37;2.87;;;;;;;24.96;52.27;99544.53;7308935;19;129417;-37
2023/06/14 08:15:40;;;;;;;73.27;4.33;;;;;;;25.02;51.52;99564.94;7309251;19;129340;-37
2023/06/14 08:18:05;;;;;;;14.80;1.65;;;;;;;24.94;51.94;99554.41;7311809;19;129103;-37
2023/06/14 08:20:31;;;;;;;51.23;4.03;;;;;;;25.05;52.13;99567.22;7310682;19;129231;-34
2023/06/14 08:22:58;;;;;;;31.20;2.43;;;;;;;25.04;51.80;99576.13;7310731;19;129580;-41
2023/06/14 08:25:23;;;;;;;37.38;2.85;;;;;;;25.02;51.95;99583.34;7310901;19;129711;-37
2023/06/14 08:27:50;;;;;;;32.93;3.03;;;;;;;25.02;51.48;99575.47;7311356;19;129317;-36
2023/06/14 08:30:17;;;;;;;49.42;3.40;;;;;;;24.92;52.09;99559.00;7309831;19;128994;-41
2023/06/14 08:32:42;;;;;;;38.65;2.95;;;;;;;24.94;51.53;99565.72;7311568;19;130106;-32
2023/06/14 08:35:08;;;;;;;37.80;2.90;;;;;;;25.01;52.17;99572.00;7311198;19;129144;-36
2023/06/14 08:37:38;;;;;;;24.10;2.10;;;;;;;25.01;52.35;99573.78;7309817;19;129152;-38
2023/06/14 08:40:05;;;;;;;24.63;2.03;;;;;;;25.03;51.68;99580.56;7311375;19;129478;-42
2023/06/14 08:42:32;;;;;;;34.30;2.72;;;;;;;25.04;51.88;99581.38;7309642;19;129552;-36
2023/06/14 08:44:59;;;;;;;27.88;2.20;;;;;;;25.03;51.47;99577.91;7311132;19;129336;-37
2023/06/14 08:47:26;;;;;;;44.38;3.50;;;;;;;25.03;51.70;99582.34;7309899;19;129183;-36
2023/06/14 08:49:57;;;;;;;20.95;1.90;;;;;;;25.02;51.82;99571.03;7310936;19;129035;-41
2023/06/14 08:52:22;;;;;;;41.72;2.97;;;;;;;24.92;51.90;99564.25;7308938;19;129162;-43
2023/06/14 08:54:48;;;;;;;45.07;3.20;;;;;;;25.01;51.52;99582.50;7311021;19;129427;-41
2023/06/14 08:57:15;;;;;;;28.23;2.57;;;;;;;25.04;52.12;99581.38;7311732;19;129313;-36
2023/06/14 08:59:45;;;;;;;29.50;2.40;;;;;;;25.03;52.31;99577.91;7309651;19;129286;-38
2023/06/14 09:02:13;;;;;;;28.35;2.28;;;;;;;25.03;52.10;99577.09;7310038;19;129387;-33
2023/06/14 09:04:39;;;;;;;48.22;3.45;;;;;;;25.02;52.31;99580.72;7310798;19;129478;-41
2023/06/14 09:07:06;;;;;;;14.25;1.52;;;;;;;25.03;51.89;99579.72;7308519;19;128853;-44
2023/06/14 09:09:32;;;;;;;30.13;2.47;;;;;;;25.00;52.13;99588.78;7309677;19;129615;-37
2023/06/14 09:11:57;;;;;;;30.90;2.30;;;;;;;25.02;52.00;99580.72;7309224;19;129638;-39
2023/06/14 09:14:24;;;;;;;30.30;2.40;;;;;;;25.02;52.22;99585.97;7310124;19;129451;-38
2023/06/14 09:16:54;;;;;;;22.55;1.98;;;;;;;24.99;52.73;99581.03;7309741;19;128775;-40
2023/06/14 09:19:25;;;;;;;67.30;4.45;;;;;;;25.02;52.40;99573.66;7309081;19;129195;-35
2023/06/14 09:21:53;;;;;;;25.60;2.03;;;;;;;25.01;52.53;99590.41;7309001;19;129139;-41
2023/06/14 09:24:19;;;;;;;52.45;3.50;;;;;;;25.00;52.21;99577.41;7312001;19;130236;-34
2023/06/14 09:26:47;;;;;;;43.90;2.97;;;;;;;24.99;52.57;99581.03;7315879;19;129442;-38
2023/06/14 09:29:13;;;;;;;10.68;1.15;;;;;;;24.98;51.59;99574.13;7317635;19;129066;-38
2023/06/14 09:31:38;;;;;;;35.80;2.77;;;;;;;25.01;52.40;99584.31;7313954;19;130350;-36
2023/06/14 09:34:04;;;;;;;41.97;3.10;;;;;;;25.02;51.96;99578.91;7316626;19;129341;-37
2023/06/14 09:36:31;;;;;;;39.27;2.87;;;;;;;24.98;52.62;99574.13;7314700;19;128944;-39
2023/06/14 09:39:05;;;;;;;30.30;2.30;;;;;;;25.03;52.22;99582.34;7316182;19;129539;-37
2023/06/14 09:41:35;;;;;;;21.73;1.80;;;;;;;25.01;52.86;99579.88;7315002;19;130756;-33
2023/06/14 09:44:02;;;;;;;29.27;2.17;;;;;;;24.93;52.45;99566.72;7315659;19;129526;-35
2023/06/14 09:46:29;;;;;;;36.08;2.47;;;;;;;24.91;51.46;99567.84;7314682;19;129635;-37
2023/06/14 09:48:55;;;;;;;17.27;1.65;;;;;;;24.98;52.56;99574.94;7316980;19;129653;-39
2023/06/14 09:51:22;;;;;;;32.53;2.40;;;;;;;25.02;52.48;99578.09;7312841;19;129122;-41
2023/06/14 09:53:49;;;;;;;10.80;1.33;;;;;;;25.00;51.82;99577.41;7316381;19;129190;-34
2023/06/14 09:56:29;;;;;;;46.47;3.00;;;;;;;25.01;52.23;99573.78;7314739;19;129197;-35
2023/06/14 09:58:56;;;;;;;37.83;2.67;;;;;;;25.00;52.42;99578.25;7316421;19;129267;-41
2023/06/14 10:01:25;;;;;;;25.85;2.13;;;;;;;24.90;52.41;99563.59;7314667;19;129740;-36
2023/06/14 10:03:55;;;;;;;27.52;2.17;;;;;;;25.02;52.31;99576.28;7316126;19;129819;-34
2023/06/14 10:06:24;;;;;;;23.33;1.88;;;;;;;24.94;52.39;99551.78;7313314;19;128866;-35
2023/06/14 10:08:52;;;;;;;48.95;3.30;;;;;;;25.01;52.69;99574.63;7315938;19;129120;-35
2023/06/14 10:11:17;;;;;;;24.15;1.92;;;;;;;24.95;51.92;99563.94;7312386;19;129523;-41
2023/06/14 10:13:43;;;;;;;35.53;2.87;;;;;;;25.00;52.00;99570.34;7315070;19;129265;-38
2023/06/14 10:16:27;;;;;;;23.87;2.03;;;;;;;25.00;52.72;99567.72;7312346;19;129375;-41
2023/06/14 10:19:05;;;;;;;24.70;1.90;;;;;;;24.97;52.83;99575.13;7316049;19;129717;-33
2023/06/14 10:21:48;;;;;;;99.90;6.05;;;;;;;24.90;53.09;99550.44;7314156;19;128980;-37
2023/06/14 10:24:17;;;;;;;38.10;2.72;;;;;;;24.98;52.24;99564.44;7315896;19;129323;-36
2023/06/14 10:26:57;;;;;;;40.33;3.10;;;;;;;25.02;52.58;99559.66;7312812;19;130071;-39
2023/06/14 10:29:22;;;;;;;26.23;2.08;;;;;;;24.97;51.91;99559.34;7316681;19;129509;-34
2023/06/14 10:31:50;;;;;;;90.50;5.70;;;;;;;24.98;52.45;99558.34;7310867;19;129756;-42
2023/06/14 10:34:27;;;;;;;24.92;2.10;;;;;;;24.97;53.04;99557.53;7315474;19;129158;-36
2023/06/14 10:37:20;;;;;;;51.58;3.55;;;;;;;24.96;52.72;99552.41;7309556;19;129117;-36
2023/06/14 10:39:46;;;;;;;27.02;1.88;;;;;;;24.97;52.52;99546.19;7316332;19;129219;-32
2023/06/14 10:42:12;;;;;;;94.70;6.03;;;;;;;24.98;52.70;99556.53;7313253;19;129601;-38
2023/06/14 10:44:44;;;;;;;;;;;;;;;25.06;52.80;99542.56;7316290;19;129326;-40
2023/06/14 10:47:26;;;;;;;19.08;1.58;;;;;;;24.99;52.31;99552.13;7311554;19;129631;-33
2023/06/14 10:49:53;;;;;;;25.92;2.03;;;;;;;24.97;53.07;99548.81;7314179;19;128965;-35
2023/06/14 10:52:28;;;;;;;56.92;3.67;;;;;;;24.97;52.92;99546.19;7311930;19;129294;-38
2023/06/14 10:55:16;;;;;;;50.42;3.22;;;;;;;25.00;52.93;99545.84;7314381;19;129669;-36
2023/06/14 10:57:51;;;;;;;;;;;;;;;25.08;52.75;99553.75;7314861;19;129220;-33
2023/06/14 11:00:22;;;;;;;35.60;2.50;;;;;;;25.01;52.20;99547.47;7314643;19;129060;-39
2023/06/14 11:02:56;;;;;;;91.65;5.43;;;;;;;25.02;52.47;99543.88;7312699;19;130192;-38
2023/06/14 11:05:28;;;;;;;11.00;1.15;;;;;;;24.96;52.63;99534.81;7314041;19;129742;-37
2023/06/14 11:08:15;;;;;;;51.35;3.38;;;;;;;24.99;52.49;99533.69;7313311;19;128932;-41
2023/06/14 11:10:41;;;;;;;20.47;1.80;;;;;;;24.95;52.49;99537.63;7311888;19;129089;-31
2023/06/14 11:13:08;;;;;;;109.88;6.47;;;;;;;24.97;52.59;99535.66;7312194;19;129084;-34
2023/06/14 11:15:36;;;;;;;27.02;1.98;;;;;;;24.97;52.75;99535.66;7313473;19;131078;-41
2023/06/14 11:18:02;;;;;;;31.52;2.28;;;;;;;24.97;52.43;99536.50;7313913;19;129367;-40